CPA332 RPLL-VHHX
Flight info
| Callsign | CPA332 |
|---|---|
| Flight time | 1h 39m |
| Altitude | 38000 |
| Route | CAB2R CAB A461 NOMAN DCT NOM50 DCT NOM30 DCT CH DCT GOLF DCT SL DCT D15 DCT OM13 |
| Aircraft | B744/H-SDE3FGHIM1M2RWXY/LB1 |
Departure
| Time | 2026-05-04 06:45 |
|---|---|
| Airport | Ninoy Aquino International Airport (RPLL) |
Arrival
| Time | 2026-05-04 08:25 |
|---|---|
| Airport | Hong Kong International Airport Kai Tak (VHHX) |
| Time | Latitude | Longitude | Altitude | Speed | Heading |
|---|---|---|---|---|---|
| 2026-05-04 06:05 | 14.50428 | 121.00514 | 64 ft | 0 kts | 307° |
| 2026-05-04 06:36 | 14.50378 | 121.00574 | 65 ft | 2 kts | 327° |
| 2026-05-04 06:37 | 14.50365 | 121.00583 | 64 ft | 2 kts | 316° |
| 2026-05-04 06:37 | 14.50356 | 121.00597 | 64 ft | 2 kts | 284° |
| 2026-05-04 06:37 | 14.50356 | 121.00609 | 64 ft | 2 kts | 242° |
| 2026-05-04 06:37 | 14.50362 | 121.00620 | 64 ft | 0 kts | 241° |
| 2026-05-04 06:41 | 14.50354 | 121.00605 | 66 ft | 8 kts | 240° |
| 2026-05-04 06:41 | 14.50305 | 121.00517 | 67 ft | 17 kts | 239° |
| 2026-05-04 06:41 | 14.50252 | 121.00423 | 71 ft | 8 kts | 239° |
| 2026-05-04 06:41 | 14.50222 | 121.00371 | 64 ft | 9 kts | 238° |
| 2026-05-04 06:42 | 14.50175 | 121.00337 | 65 ft | 8 kts | 191° |
| 2026-05-04 06:42 | 14.50113 | 121.00315 | 75 ft | 10 kts | 221° |
| 2026-05-04 06:42 | 14.50074 | 121.00252 | 65 ft | 14 kts | 239° |
| 2026-05-04 06:44 | 14.49831 | 121.00100 | 72 ft | 17 kts | 56° |
| 2026-05-04 06:44 | 14.49893 | 121.00202 | 67 ft | 11 kts | 60° |
| 2026-05-04 06:44 | 14.49896 | 121.00207 | 68 ft | 0 kts | 60° |
| 2026-05-04 06:45 | 14.49904 | 121.00221 | 65 ft | 13 kts | 60° |
| 2026-05-04 06:45 | 14.50169 | 121.00697 | 68 ft | 138 kts | 59° |
| 2026-05-04 06:45 | 14.50814 | 121.01848 | 152 ft | 219 kts | 63° |
| 2026-05-04 06:45 | 14.51571 | 121.03235 | 1178 ft | 219 kts | 62° |
| 2026-05-04 06:46 | 14.52290 | 121.04582 | 2590 ft | 208 kts | 63° |
| 2026-05-04 06:46 | 14.52953 | 121.05855 | 3261 ft | 198 kts | 63° |
| 2026-05-04 06:46 | 14.53709 | 121.07151 | 2996 ft | 225 kts | 59° |
| 2026-05-04 06:46 | 14.54555 | 121.08600 | 3151 ft | 239 kts | 61° |
| 2026-05-04 06:48 | 14.63320 | 121.13455 | 6963 ft | 227 kts | 3° |
| 2026-05-04 06:48 | 14.64940 | 121.13468 | 7080 ft | 238 kts | 3° |
| 2026-05-04 06:49 | 14.66543 | 121.13477 | 8428 ft | 217 kts | 4° |
| 2026-05-04 06:50 | 14.77874 | 121.10718 | 11908 ft | 258 kts | 345° |
| 2026-05-04 06:51 | 14.79591 | 121.10102 | 12909 ft | 265 kts | 344° |
| 2026-05-04 06:51 | 14.81350 | 121.09470 | 13900 ft | 271 kts | 344° |
| 2026-05-04 06:51 | 14.83166 | 121.08817 | 14802 ft | 275 kts | 345° |
| 2026-05-04 06:51 | 14.84968 | 121.08171 | 15675 ft | 280 kts | 343° |
| 2026-05-04 06:52 | 14.86815 | 121.07508 | 16573 ft | 283 kts | 343° |
| 2026-05-04 06:52 | 14.88687 | 121.06836 | 17466 ft | 286 kts | 342° |
| 2026-05-04 06:52 | 14.90636 | 121.06396 | 18296 ft | 289 kts | 355° |
| 2026-05-04 06:52 | 14.92657 | 121.06255 | 19033 ft | 293 kts | 358° |
| 2026-05-04 06:53 | 14.94709 | 121.06155 | 19761 ft | 297 kts | 357° |
| 2026-05-04 06:53 | 14.96786 | 121.06018 | 20476 ft | 301 kts | 356° |
| 2026-05-04 06:53 | 14.98893 | 121.05859 | 21170 ft | 306 kts | 356° |
| 2026-05-04 06:53 | 15.01025 | 121.05707 | 21886 ft | 309 kts | 356° |
| 2026-05-04 06:54 | 15.03186 | 121.05561 | 22573 ft | 313 kts | 356° |
| 2026-05-04 06:54 | 15.05363 | 121.05413 | 23287 ft | 315 kts | 356° |
| 2026-05-04 06:54 | 15.07567 | 121.05259 | 23859 ft | 320 kts | 356° |
| 2026-05-04 06:54 | 15.09797 | 121.05104 | 24402 ft | 323 kts | 356° |
| 2026-05-04 06:55 | 15.12054 | 121.04947 | 24921 ft | 327 kts | 356° |
| 2026-05-04 06:55 | 15.14333 | 121.04789 | 25432 ft | 330 kts | 356° |
| 2026-05-04 06:55 | 15.16635 | 121.04629 | 25952 ft | 333 kts | 355° |
| 2026-05-04 06:55 | 15.18958 | 121.04468 | 26498 ft | 335 kts | 355° |
| 2026-05-04 06:56 | 15.21303 | 121.04306 | 26956 ft | 341 kts | 355° |
| 2026-05-04 06:57 | 15.35059 | 121.03348 | 29747 ft | 358 kts | 354° |
| 2026-05-04 06:58 | 15.37543 | 121.03175 | 30240 ft | 359 kts | 354° |
| 2026-05-04 06:58 | 15.40044 | 121.03001 | 30647 ft | 361 kts | 354° |
| 2026-05-04 06:58 | 15.42556 | 121.02827 | 31067 ft | 363 kts | 354° |
| 2026-05-04 06:58 | 15.45081 | 121.02651 | 31463 ft | 364 kts | 354° |
| 2026-05-04 06:59 | 15.47576 | 121.02428 | 31826 ft | 365 kts | 346° |
| 2026-05-04 06:59 | 15.49990 | 121.01580 | 32189 ft | 361 kts | 332° |
| 2026-05-04 06:59 | 15.52195 | 121.00396 | 32536 ft | 362 kts | 328° |
| 2026-05-04 06:59 | 15.54401 | 120.99129 | 32896 ft | 364 kts | 329° |
| 2026-05-04 07:01 | 15.70462 | 120.90616 | 34973 ft | 376 kts | 329° |
| 2026-05-04 07:01 | 15.72795 | 120.89372 | 35225 ft | 378 kts | 329° |
| 2026-05-04 07:02 | 15.75140 | 120.88120 | 35458 ft | 380 kts | 329° |
| 2026-05-04 07:02 | 15.77496 | 120.86866 | 35704 ft | 381 kts | 328° |
| 2026-05-04 07:02 | 15.79858 | 120.85608 | 35905 ft | 383 kts | 328° |
| 2026-05-04 07:02 | 15.82235 | 120.84342 | 36128 ft | 384 kts | 328° |
| 2026-05-04 07:03 | 15.84615 | 120.83073 | 36333 ft | 386 kts | 328° |
| 2026-05-04 07:03 | 15.87008 | 120.81797 | 36533 ft | 387 kts | 328° |
| 2026-05-04 07:03 | 15.89408 | 120.80517 | 36741 ft | 389 kts | 328° |
| 2026-05-04 07:03 | 15.91820 | 120.79232 | 36925 ft | 390 kts | 328° |
| 2026-05-04 07:04 | 15.94236 | 120.77942 | 37108 ft | 391 kts | 328° |
| 2026-05-04 07:04 | 15.96663 | 120.76647 | 37279 ft | 393 kts | 328° |
| 2026-05-04 07:04 | 15.99094 | 120.75348 | 37469 ft | 394 kts | 328° |
| 2026-05-04 07:04 | 16.01530 | 120.74047 | 37706 ft | 393 kts | 328° |
| 2026-05-04 07:05 | 16.03964 | 120.72748 | 37857 ft | 394 kts | 328° |
| 2026-05-04 07:05 | 16.06413 | 120.71438 | 37890 ft | 398 kts | 328° |
| 2026-05-04 07:05 | 16.11336 | 120.68808 | 37889 ft | 397 kts | 328° |
| 2026-05-04 07:06 | 16.18667 | 120.64885 | 37899 ft | 395 kts | 328° |
| 2026-05-04 07:07 | 16.23557 | 120.62268 | 37894 ft | 395 kts | 328° |
| 2026-05-04 07:08 | 16.41273 | 120.52770 | 37947 ft | 432 kts | 328° |
| 2026-05-04 07:09 | 16.43962 | 120.51327 | 37941 ft | 438 kts | 328° |
| 2026-05-04 07:09 | 16.49456 | 120.48377 | 37938 ft | 450 kts | 328° |
| 2026-05-04 07:10 | 16.55103 | 120.45343 | 37938 ft | 463 kts | 329° |
| 2026-05-04 07:12 | 16.77525 | 120.30681 | 37931 ft | 484 kts | 311° |
| 2026-05-04 07:12 | 16.82200 | 120.25540 | 37896 ft | 492 kts | 311° |
| 2026-05-04 07:13 | 16.86939 | 120.20354 | 37893 ft | 494 kts | 311° |
| 2026-05-04 07:13 | 16.91674 | 120.15152 | 37890 ft | 494 kts | 311° |
| 2026-05-04 07:14 | 17.03513 | 120.02140 | 37896 ft | 493 kts | 311° |
| 2026-05-04 07:15 | 17.08241 | 119.96939 | 37898 ft | 494 kts | 311° |
| 2026-05-04 07:15 | 17.12979 | 119.91720 | 37894 ft | 495 kts | 311° |
| 2026-05-04 07:16 | 17.17712 | 119.86505 | 37891 ft | 494 kts | 311° |
| 2026-05-04 07:16 | 17.22434 | 119.81294 | 37896 ft | 493 kts | 311° |
| 2026-05-04 07:17 | 17.27143 | 119.76096 | 37890 ft | 493 kts | 311° |
| 2026-05-04 07:17 | 17.31860 | 119.70885 | 37895 ft | 494 kts | 311° |
| 2026-05-04 07:18 | 17.36583 | 119.65662 | 37892 ft | 494 kts | 311° |
| 2026-05-04 07:18 | 17.41301 | 119.60440 | 37896 ft | 492 kts | 311° |
| 2026-05-04 07:19 | 17.45995 | 119.55241 | 37895 ft | 491 kts | 311° |
| 2026-05-04 07:19 | 17.50682 | 119.50046 | 37895 ft | 490 kts | 311° |
| 2026-05-04 07:20 | 17.55362 | 119.44855 | 37894 ft | 490 kts | 311° |
| 2026-05-04 07:20 | 17.60021 | 119.39683 | 37897 ft | 492 kts | 311° |
| 2026-05-04 07:22 | 17.78825 | 119.18763 | 37912 ft | 490 kts | 311° |
| 2026-05-04 07:23 | 17.83503 | 119.13549 | 37909 ft | 491 kts | 311° |
| 2026-05-04 07:23 | 17.88178 | 119.08333 | 37915 ft | 491 kts | 311° |
| 2026-05-04 07:24 | 17.92825 | 119.03144 | 37914 ft | 491 kts | 311° |
| 2026-05-04 07:24 | 17.97510 | 118.97908 | 37922 ft | 492 kts | 311° |
| 2026-05-04 07:26 | 18.16201 | 118.76973 | 37923 ft | 490 kts | 311° |
| 2026-05-04 07:27 | 18.20858 | 118.71747 | 37922 ft | 490 kts | 311° |
| 2026-05-04 07:27 | 18.24730 | 118.67398 | 37926 ft | 491 kts | 311° |
| 2026-05-04 07:28 | 18.29401 | 118.62147 | 37931 ft | 491 kts | 311° |
| 2026-05-04 07:28 | 18.34070 | 118.56894 | 37935 ft | 491 kts | 311° |
| 2026-05-04 07:29 | 18.38732 | 118.51644 | 37936 ft | 491 kts | 311° |
| 2026-05-04 07:29 | 18.43394 | 118.46390 | 37939 ft | 491 kts | 311° |
| 2026-05-04 07:30 | 18.48056 | 118.41132 | 37936 ft | 491 kts | 311° |
| 2026-05-04 07:30 | 18.52712 | 118.35875 | 37939 ft | 491 kts | 310° |
| 2026-05-04 07:31 | 18.57372 | 118.30610 | 37948 ft | 491 kts | 310° |
| 2026-05-04 07:33 | 18.76045 | 118.09466 | 37941 ft | 493 kts | 310° |
| 2026-05-04 07:33 | 18.80716 | 118.04166 | 37936 ft | 493 kts | 310° |
| 2026-05-04 07:34 | 18.85375 | 117.98873 | 37944 ft | 492 kts | 310° |
| 2026-05-04 07:34 | 18.90021 | 117.93593 | 37943 ft | 489 kts | 310° |
| 2026-05-04 07:35 | 18.94654 | 117.88319 | 37943 ft | 491 kts | 310° |
| 2026-05-04 07:35 | 18.99310 | 117.83018 | 37947 ft | 492 kts | 310° |
| 2026-05-04 07:36 | 19.03947 | 117.77733 | 37942 ft | 489 kts | 310° |
| 2026-05-04 07:38 | 19.22462 | 117.56582 | 37964 ft | 491 kts | 310° |
| 2026-05-04 07:38 | 19.27093 | 117.51280 | 37957 ft | 490 kts | 310° |
| 2026-05-04 07:39 | 19.31719 | 117.45978 | 37963 ft | 490 kts | 309° |
| 2026-05-04 07:39 | 19.36333 | 117.40686 | 37962 ft | 489 kts | 309° |
| 2026-05-04 07:40 | 19.40943 | 117.35395 | 37954 ft | 488 kts | 309° |
| 2026-05-04 07:40 | 19.45555 | 117.30095 | 37961 ft | 490 kts | 309° |
| 2026-05-04 07:41 | 19.50183 | 117.24773 | 37961 ft | 492 kts | 309° |
| 2026-05-04 07:41 | 19.54819 | 117.19436 | 37961 ft | 491 kts | 309° |
| 2026-05-04 07:42 | 19.59435 | 117.14118 | 37967 ft | 489 kts | 309° |
| 2026-05-04 07:42 | 19.64023 | 117.08828 | 37963 ft | 486 kts | 309° |
| 2026-05-04 07:43 | 19.68606 | 117.03535 | 37966 ft | 488 kts | 309° |
| 2026-05-04 07:43 | 19.73203 | 116.98225 | 37954 ft | 489 kts | 309° |
| 2026-05-04 07:44 | 19.77803 | 116.92907 | 37967 ft | 488 kts | 309° |
| 2026-05-04 07:44 | 19.82390 | 116.87598 | 37960 ft | 487 kts | 309° |
| 2026-05-04 07:45 | 19.86965 | 116.82298 | 37964 ft | 486 kts | 309° |
| 2026-05-04 07:45 | 19.91531 | 116.77002 | 37965 ft | 487 kts | 309° |
| 2026-05-04 07:46 | 19.96112 | 116.71685 | 37973 ft | 488 kts | 309° |
| 2026-05-04 07:46 | 20.00698 | 116.66358 | 37978 ft | 489 kts | 309° |
| 2026-05-04 07:47 | 20.05309 | 116.61036 | 37966 ft | 488 kts | 309° |
| 2026-05-04 07:49 | 20.23611 | 116.39830 | 37976 ft | 488 kts | 309° |
| 2026-05-04 07:49 | 20.28204 | 116.34498 | 37981 ft | 489 kts | 309° |
| 2026-05-04 07:50 | 20.32798 | 116.29157 | 37979 ft | 488 kts | 309° |
| 2026-05-04 07:50 | 20.37370 | 116.23839 | 37966 ft | 485 kts | 309° |
| 2026-05-04 07:51 | 20.41918 | 116.18541 | 37957 ft | 484 kts | 309° |
| 2026-05-04 07:51 | 20.46470 | 116.13235 | 37963 ft | 485 kts | 309° |
| 2026-05-04 07:52 | 20.51031 | 116.07914 | 37972 ft | 486 kts | 309° |
| 2026-05-04 07:52 | 20.55599 | 116.02580 | 37977 ft | 487 kts | 309° |
| 2026-05-04 07:54 | 20.73757 | 115.81325 | 37975 ft | 481 kts | 309° |
| 2026-05-04 07:55 | 20.78257 | 115.76042 | 37976 ft | 481 kts | 308° |
| 2026-05-04 07:55 | 20.82759 | 115.70755 | 37974 ft | 481 kts | 308° |
| 2026-05-04 07:56 | 20.87261 | 115.65463 | 37977 ft | 481 kts | 308° |
| 2026-05-04 07:56 | 20.91750 | 115.60180 | 37977 ft | 479 kts | 308° |
| 2026-05-04 07:57 | 20.96236 | 115.54895 | 37978 ft | 480 kts | 308° |
| 2026-05-04 07:57 | 21.00729 | 115.49598 | 37985 ft | 481 kts | 308° |
| 2026-05-04 07:58 | 21.05234 | 115.44281 | 37990 ft | 482 kts | 308° |
| 2026-05-04 07:58 | 21.09735 | 115.38965 | 37983 ft | 478 kts | 308° |
| 2026-05-04 07:59 | 21.14176 | 115.33713 | 37972 ft | 475 kts | 308° |
| 2026-05-04 07:59 | 21.16394 | 115.31085 | 37730 ft | 478 kts | 308° |
| 2026-05-04 07:59 | 21.18630 | 115.28437 | 36976 ft | 480 kts | 308° |
| 2026-05-04 08:00 | 21.20865 | 115.25794 | 36232 ft | 477 kts | 308° |
| 2026-05-04 08:00 | 21.23082 | 115.23169 | 35526 ft | 473 kts | 308° |
| 2026-05-04 08:00 | 21.25282 | 115.20559 | 34834 ft | 471 kts | 307° |
| 2026-05-04 08:02 | 21.40789 | 115.02136 | 29966 ft | 468 kts | 308° |
| 2026-05-04 08:02 | 21.42960 | 114.99553 | 29177 ft | 464 kts | 308° |
| 2026-05-04 08:02 | 21.45108 | 114.96998 | 28461 ft | 458 kts | 308° |
| 2026-05-04 08:03 | 21.47224 | 114.94476 | 27733 ft | 451 kts | 308° |
| 2026-05-04 08:03 | 21.49310 | 114.91989 | 27026 ft | 446 kts | 307° |
| 2026-05-04 08:03 | 21.51374 | 114.89525 | 26325 ft | 442 kts | 307° |
| 2026-05-04 08:03 | 21.53419 | 114.87086 | 25666 ft | 438 kts | 307° |
| 2026-05-04 08:04 | 21.55449 | 114.84663 | 25010 ft | 435 kts | 307° |
| 2026-05-04 08:04 | 21.57464 | 114.82257 | 24458 ft | 431 kts | 307° |
| 2026-05-04 08:04 | 21.59461 | 114.79871 | 23918 ft | 429 kts | 307° |
| 2026-05-04 08:04 | 21.61452 | 114.77491 | 23342 ft | 427 kts | 307° |
| 2026-05-04 08:05 | 21.63430 | 114.75126 | 22696 ft | 424 kts | 307° |
| 2026-05-04 08:05 | 21.65392 | 114.72781 | 22035 ft | 420 kts | 307° |
| 2026-05-04 08:05 | 21.67329 | 114.70463 | 21403 ft | 414 kts | 307° |
| 2026-05-04 08:05 | 21.69225 | 114.68161 | 20778 ft | 408 kts | 306° |
| 2026-05-04 08:06 | 21.71074 | 114.65864 | 20174 ft | 404 kts | 306° |
| 2026-05-04 08:06 | 21.72906 | 114.63596 | 19565 ft | 400 kts | 306° |
| 2026-05-04 08:06 | 21.74734 | 114.61360 | 18977 ft | 396 kts | 306° |
| 2026-05-04 08:06 | 21.76543 | 114.59146 | 18404 ft | 392 kts | 306° |
| 2026-05-04 08:08 | 21.88656 | 114.44222 | 13678 ft | 365 kts | 306° |
| 2026-05-04 08:08 | 21.90320 | 114.42171 | 12932 ft | 362 kts | 307° |
| 2026-05-04 08:10 | 22.03049 | 114.26448 | 7926 ft | 332 kts | 308° |
| 2026-05-04 08:11 | 22.04557 | 114.24582 | 7502 ft | 328 kts | 308° |
| 2026-05-04 08:11 | 22.07552 | 114.20876 | 6729 ft | 326 kts | 309° |
| 2026-05-04 08:11 | 22.09045 | 114.19026 | 6385 ft | 327 kts | 309° |
| 2026-05-04 08:12 | 22.10530 | 114.17189 | 6013 ft | 323 kts | 309° |
| 2026-05-04 08:12 | 22.12004 | 114.15362 | 5663 ft | 323 kts | 309° |
| 2026-05-04 08:12 | 22.13480 | 114.13531 | 5315 ft | 323 kts | 309° |
| 2026-05-04 08:12 | 22.14949 | 114.11707 | 4992 ft | 323 kts | 310° |
| 2026-05-04 08:13 | 22.16432 | 114.09868 | 4707 ft | 323 kts | 309° |
| 2026-05-04 08:13 | 22.17901 | 114.08048 | 4443 ft | 319 kts | 310° |
| 2026-05-04 08:13 | 22.19340 | 114.06265 | 4041 ft | 309 kts | 310° |
| 2026-05-04 08:13 | 22.20687 | 114.04589 | 3985 ft | 281 kts | 308° |
| 2026-05-04 08:14 | 22.21645 | 114.02925 | 3981 ft | 241 kts | 287° |
| 2026-05-04 08:14 | 22.21900 | 114.01263 | 3976 ft | 211 kts | 267° |
| 2026-05-04 08:14 | 22.21864 | 114.00220 | 3966 ft | 194 kts | 267° |
| 2026-05-04 08:16 | 22.21611 | 113.92120 | 4000 ft | 160 kts | 271° |
| 2026-05-04 08:16 | 22.22061 | 113.90994 | 3613 ft | 173 kts | 314° |
| 2026-05-04 08:16 | 22.23152 | 113.90433 | 2999 ft | 188 kts | 358° |
| 2026-05-04 08:17 | 22.24434 | 113.90495 | 3417 ft | 168 kts | 6° |
| 2026-05-04 08:17 | 22.25603 | 113.90562 | 3971 ft | 174 kts | 2° |
| 2026-05-04 08:17 | 22.26806 | 113.90608 | 4047 ft | 167 kts | 1° |
| 2026-05-04 08:17 | 22.27584 | 113.90636 | 3909 ft | 167 kts | 1° |
| 2026-05-04 08:19 | 22.31823 | 113.96690 | 4016 ft | 162 kts | 88° |
| 2026-05-04 08:19 | 22.31898 | 113.97840 | 3739 ft | 148 kts | 88° |
| 2026-05-04 08:20 | 22.31968 | 113.98944 | 3321 ft | 148 kts | 87° |
| 2026-05-04 08:20 | 22.32038 | 114.00029 | 2986 ft | 139 kts | 87° |
| 2026-05-04 08:20 | 22.32104 | 114.01064 | 2555 ft | 140 kts | 88° |
| 2026-05-04 08:20 | 22.32127 | 114.02096 | 2143 ft | 134 kts | 91° |
| 2026-05-04 08:21 | 22.32090 | 114.03122 | 1784 ft | 144 kts | 92° |
| 2026-05-04 08:21 | 22.32085 | 114.04206 | 1794 ft | 139 kts | 85° |
| 2026-05-04 08:21 | 22.32177 | 114.05253 | 2083 ft | 141 kts | 85° |
| 2026-05-04 08:21 | 22.32279 | 114.06335 | 2397 ft | 141 kts | 85° |
| 2026-05-04 08:22 | 22.32405 | 114.07340 | 2465 ft | 130 kts | 79° |
| 2026-05-04 08:22 | 22.32570 | 114.08384 | 2382 ft | 145 kts | 83° |
| 2026-05-04 08:24 | 22.33233 | 114.15576 | 960 ft | 135 kts | 85° |
| 2026-05-04 08:24 | 22.33249 | 114.16691 | 764 ft | 147 kts | 90° |
| 2026-05-04 08:24 | 22.33207 | 114.17747 | 515 ft | 151 kts | 94° |
| 2026-05-04 08:24 | 22.32892 | 114.18822 | 274 ft | 146 kts | 122° |
| 2026-05-04 08:25 | 22.32111 | 114.19720 | 304 ft | 149 kts | 130° |
| 2026-05-04 08:25 | 22.31339 | 114.20046 | 373 ft | 131 kts | 207° |
| 2026-05-04 08:25 | 22.30973 | 114.19875 | 17 ft | 5 kts | 237° |